Umm Slal — V7PW3 — position and weather

sailwx.info

Track history (hours):
 
Tides and Currents Weather Stations Pressure Air Temp Water Temp Dewpoint Dewpoint Depression Visibility Wind Speed Wind Dir Waves Ship Positions

Umm Slal

Last reported at 2014-Sep-11 17:30 UTC. Time now 2014-Sep-21 10:04 UTC.
Position N 25°28' E 056°51'.
Warning: this ship's position is 9 days out of date.

Length 345 m; draft 9.5 m.

Type: Ship (hazmat cat A). MMSI: 538003300.

Date/timePositionNaut miles runAvg speedWind from/ knotsBaromVisibWave heightAir tempDewpointWater temp
2014-Sep-11 17:30N 25°28' E 056°51'0 0.0
2014-Sep-11 16:28N 25°28' E 056°51'0 0.1
2014-Sep-11 12:27N 25°28' E 056°52'0 0.0
2014-Sep-11 03:12N 25°28' E 056°51'0 0.2
2014-Sep-11 02:31N 25°28' E 056°51'0 0.1
2014-Sep-11 01:31N 25°28' E 056°52'0 0.1
2014-Sep-11 00:32N 25°28' E 056°52'0 0.0
2014-Sep-10 23:33N 25°28' E 056°52'0 0.0
2014-Sep-10 22:33N 25°28' E 056°52'0 0.0
2014-Sep-10 21:28N 25°28' E 056°52'0 0.1
2014-Sep-10 20:29N 25°28' E 056°52'0 0.1
2014-Sep-10 18:27N 25°28' E 056°51'0 0.0
2014-Sep-10 17:31N 25°28' E 056°51'0 0.0
2014-Sep-10 16:25N 25°28' E 056°51'0 0.1
2014-Sep-10 15:20N 25°28' E 056°51'0 0.2
2014-Sep-10 14:33N 25°28' E 056°51'0 0.2
2014-Sep-10 13:27N 25°28' E 056°51'0 0.1
2014-Sep-10 12:28N 25°28' E 056°52'0 0.0
2014-Sep-10 02:32N 25°28' E 056°51'0 0.1
2014-Sep-10 01:32N 25°28' E 056°51'0 0.1
2014-Sep-10 00:33N 25°28' E 056°51'0 0.1
2014-Sep-09 23:28N 25°28' E 056°52'0 0.0
2014-Sep-09 21:08N 25°28' E 056°52'0 0.1
2014-Sep-09 18:25N 25°28' E 056°51'0 0.1
2014-Sep-09 17:11N 25°28' E 056°51'0 0.0
2014-Sep-09 16:29N 25°28' E 056°51'0 0.0
2014-Sep-09 15:27N 25°28' E 056°51'19 4.4
2014-Sep-09 11:10N 25°17' E 056°35'19 2.2
2014-Sep-09 02:33N 25°28' E 056°51'0 0.1
2014-Sep-09 00:22N 25°28' E 056°51'0 0.2
2014-Sep-08 23:23N 25°28' E 056°51'0 0.2
2014-Sep-08 22:15N 25°28' E 056°51'0 0.2
2014-Sep-08 21:30N 25°28' E 056°51'0 0.1
2014-Sep-08 20:22N 25°28' E 056°51'0 0.1
2014-Sep-08 19:28N 25°28' E 056°51'0 0.1
2014-Sep-08 18:29N 25°28' E 056°51'0 0.1
2014-Sep-08 17:33N 25°28' E 056°51'20 6.7
2014-Sep-08 14:31N 25°16' E 056°33'0 0.0
2014-Sep-08 11:33N 25°16' E 056°33'0 0.0
2014-Sep-08 02:33N 25°16' E 056°33'0 0.0
2014-Sep-08 01:31N 25°16' E 056°33'0 0.0
2014-Sep-08 00:31N 25°16' E 056°33'0 0.1
2014-Sep-07 23:29N 25°16' E 056°33'0 0.0
2014-Sep-07 22:33N 25°16' E 056°33'0 0.1
2014-Sep-07 21:33N 25°16' E 056°33'0 0.1
2014-Sep-07 20:31N 25°16' E 056°33'0 0.0
2014-Sep-07 19:32N 25°16' E 056°33'0 0.0
2014-Sep-07 18:11N 25°16' E 056°33'0 0.0
2014-Sep-07 17:27N 25°16' E 056°33'0 0.0
2014-Sep-07 16:33N 25°16' E 056°33'0 0.0
2014-Sep-07 15:31N 25°16' E 056°33'  
Track history (hours):
 
Tides and Currents Weather Stations Pressure Air Temp Water Temp Dewpoint Dewpoint Depression Visibility Wind Speed Wind Dir Waves Ship Positions

Umm Slal

Last reported at 2014-Sep-11 17:30 UTC. Time now 2014-Sep-21 10:04 UTC.
Position N 25°28' E 056°51'.
Warning: this ship's position is 9 days out of date.

Length 345 m; draft 9.5 m.

Type: Ship (hazmat cat A). MMSI: 538003300.

Date/timePositionNaut miles runAvg speedWind from/ knotsBaromVisibWave heightAir tempDewpointWater temp
2014-Sep-11 17:30N 25°28' E 056°51'0 0.0
2014-Sep-11 16:28N 25°28' E 056°51'0 0.1
2014-Sep-11 12:27N 25°28' E 056°52'0 0.0
2014-Sep-11 03:12N 25°28' E 056°51'0 0.2
2014-Sep-11 02:31N 25°28' E 056°51'0 0.1
2014-Sep-11 01:31N 25°28' E 056°52'0 0.1
2014-Sep-11 00:32N 25°28' E 056°52'0 0.0
2014-Sep-10 23:33N 25°28' E 056°52'0 0.0
2014-Sep-10 22:33N 25°28' E 056°52'0 0.0
2014-Sep-10 21:28N 25°28' E 056°52'0 0.1
2014-Sep-10 20:29N 25°28' E 056°52'0 0.1
2014-Sep-10 18:27N 25°28' E 056°51'0 0.0
2014-Sep-10 17:31N 25°28' E 056°51'0 0.0
2014-Sep-10 16:25N 25°28' E 056°51'0 0.1
2014-Sep-10 15:20N 25°28' E 056°51'0 0.2
2014-Sep-10 14:33N 25°28' E 056°51'0 0.2
2014-Sep-10 13:27N 25°28' E 056°51'0 0.1
2014-Sep-10 12:28N 25°28' E 056°52'0 0.0
2014-Sep-10 02:32N 25°28' E 056°51'0 0.1
2014-Sep-10 01:32N 25°28' E 056°51'0 0.1
2014-Sep-10 00:33N 25°28' E 056°51'0 0.1
2014-Sep-09 23:28N 25°28' E 056°52'0 0.0
2014-Sep-09 21:08N 25°28' E 056°52'0 0.1
2014-Sep-09 18:25N 25°28' E 056°51'0 0.1
2014-Sep-09 17:11N 25°28' E 056°51'0 0.0
2014-Sep-09 16:29N 25°28' E 056°51'0 0.0
2014-Sep-09 15:27N 25°28' E 056°51'19 4.4
2014-Sep-09 11:10N 25°17' E 056°35'19 2.2
2014-Sep-09 02:33N 25°28' E 056°51'0 0.1
2014-Sep-09 00:22N 25°28' E 056°51'0 0.2
2014-Sep-08 23:23N 25°28' E 056°51'0 0.2
2014-Sep-08 22:15N 25°28' E 056°51'0 0.2
2014-Sep-08 21:30N 25°28' E 056°51'0 0.1
2014-Sep-08 20:22N 25°28' E 056°51'0 0.1
2014-Sep-08 19:28N 25°28' E 056°51'0 0.1
2014-Sep-08 18:29N 25°28' E 056°51'0 0.1
2014-Sep-08 17:33N 25°28' E 056°51'20 6.7
2014-Sep-08 14:31N 25°16' E 056°33'0 0.0
2014-Sep-08 11:33N 25°16' E 056°33'0 0.0
2014-Sep-08 02:33N 25°16' E 056°33'0 0.0
2014-Sep-08 01:31N 25°16' E 056°33'0 0.0
2014-Sep-08 00:31N 25°16' E 056°33'0 0.1
2014-Sep-07 23:29N 25°16' E 056°33'0 0.0
2014-Sep-07 22:33N 25°16' E 056°33'0 0.1
2014-Sep-07 21:33N 25°16' E 056°33'0 0.1
2014-Sep-07 20:31N 25°16' E 056°33'0 0.0
2014-Sep-07 19:32N 25°16' E 056°33'0 0.0
2014-Sep-07 18:11N 25°16' E 056°33'0 0.0
2014-Sep-07 17:27N 25°16' E 056°33'0 0.0
2014-Sep-07 16:33N 25°16' E 056°33'0 0.0
2014-Sep-07 15:31N 25°16' E 056°33'  

Dump ship's entire track history